createdAt,value
2022-07-31T00:03:55.373Z,7.97
2022-07-31T00:09:01.672Z,9.38
2022-07-31T00:14:08.466Z,11.05
2022-07-31T00:19:14.731Z,14.75
2022-07-31T00:24:20.368Z,14.00
2022-07-31T00:29:26.218Z,13.70
2022-07-31T00:34:32.239Z,11.35
2022-07-31T00:39:41.019Z,12.32
2022-07-31T00:44:47.854Z,12.52
2022-07-31T00:49:54.355Z,10.70
2022-07-31T00:55:00.482Z,12.73
2022-07-31T01:00:08.049Z,12.30
2022-07-31T01:05:13.813Z,9.85
2022-07-31T01:10:38.365Z,9.65
2022-07-31T01:15:45.665Z,12.30
2022-07-31T01:20:53.136Z,11.88
2022-07-31T01:26:25.340Z,10.20
2022-07-31T01:31:51.829Z,11.63
2022-07-31T01:37:22.120Z,10.40
2022-07-31T01:42:30.716Z,11.05
2022-07-31T01:47:39.183Z,10.50
2022-07-31T01:52:46.857Z,11.65
2022-07-31T01:57:56.455Z,8.13
2022-07-31T02:03:09.473Z,10.50
2022-07-31T02:13:29.128Z,14.65
2022-07-31T02:18:36.752Z,12.48
2022-07-31T02:23:58.327Z,12.07
2022-07-31T02:29:04.699Z,9.52
2022-07-31T02:34:10.429Z,11.68
2022-07-31T02:39:20.357Z,10.30
2022-07-31T02:44:28.115Z,10.60
2022-07-31T02:49:35.498Z,10.00
2022-07-31T02:54:42.477Z,11.57
2022-07-31T02:59:48.103Z,10.20
2022-07-31T03:04:54.317Z,13.73
2022-07-31T03:10:03.348Z,12.07
2022-07-31T03:15:25.320Z,16.17
2022-07-31T03:20:32.151Z,12.32
2022-07-31T03:25:40.118Z,17.95
2022-07-31T03:30:47.048Z,15.25
2022-07-31T03:35:54.713Z,19.75
2022-07-31T03:41:00.659Z,17.35
2022-07-31T03:46:07.599Z,16.90
2022-07-31T03:51:14.709Z,15.85
2022-07-31T03:56:21.620Z,16.02
2022-07-31T04:01:28.312Z,17.38
2022-07-31T04:06:59.693Z,15.43
2022-07-31T04:12:06.078Z,16.58
2022-07-31T04:17:12.390Z,15.77
2022-07-31T04:22:18.836Z,15.50
2022-07-31T04:27:25.912Z,16.63
2022-07-31T04:34:27.514Z,16.65
2022-07-31T04:39:58.467Z,18.15
2022-07-31T04:45:08.739Z,18.05
2022-07-31T04:50:14.921Z,8.25
2022-07-31T04:55:33.287Z,18.58
2022-07-31T05:00:45.402Z,21.48
2022-07-31T05:05:56.915Z,18.65
2022-07-31T05:11:21.526Z,18.02
2022-07-31T05:16:29.392Z,18.57
2022-07-31T05:21:47.129Z,19.23
2022-07-31T05:27:05.987Z,16.85
2022-07-31T05:32:12.017Z,16.52
2022-07-31T05:37:18.287Z,15.23
2022-07-31T05:42:24.672Z,14.80
2022-07-31T05:47:48.876Z,6.80
2022-07-31T05:52:54.745Z,17.15
2022-07-31T05:58:26.678Z,16.95
2022-07-31T06:03:51.941Z,15.93
2022-07-31T06:09:17.254Z,16.02
2022-07-31T06:14:28.197Z,13.82
2022-07-31T06:19:49.621Z,14.70
2022-07-31T06:24:55.865Z,13.60
2022-07-31T06:30:02.221Z,14.93
2022-07-31T06:35:09.439Z,14.57
2022-07-31T06:40:32.752Z,14.77
2022-07-31T06:46:17.049Z,13.90
2022-07-31T06:52:04.971Z,12.82
2022-07-31T06:57:12.248Z,12.55
2022-07-31T07:02:18.802Z,13.35
2022-07-31T07:07:24.553Z,12.23
2022-07-31T07:12:39.410Z,10.97
2022-07-31T07:17:45.388Z,10.60
2022-07-31T07:22:56.666Z,11.88
2022-07-31T07:28:30.325Z,7.57
2022-07-31T07:33:42.741Z,9.50
2022-07-31T07:38:59.350Z,11.23
2022-07-31T07:44:09.279Z,11.60
2022-07-31T07:49:16.937Z,10.90
2022-07-31T07:54:34.862Z,9.75
2022-07-31T08:00:01.790Z,9.18
2022-07-31T08:05:34.214Z,9.60
2022-07-31T08:10:40.988Z,5.65
2022-07-31T08:15:51.714Z,6.65
2022-07-31T08:21:14.920Z,3.83
2022-07-31T08:26:20.802Z,4.10
2022-07-31T08:31:30.693Z,5.20
2022-07-31T08:36:58.737Z,6.03
2022-07-31T08:42:12.406Z,5.28
2022-07-31T08:47:19.653Z,4.32
2022-07-31T08:52:29.499Z,4.07
2022-07-31T08:57:40.625Z,5.07
2022-07-31T09:02:47.190Z,4.78
2022-07-31T09:07:53.073Z,4.00
2022-07-31T09:12:59.699Z,4.07
2022-07-31T09:18:06.079Z,5.57
2022-07-31T09:23:14.269Z,7.30
2022-07-31T09:28:33.090Z,8.18
2022-07-31T09:33:45.324Z,8.40
2022-07-31T09:39:20.490Z,8.90
2022-07-31T09:44:53.045Z,10.23
2022-07-31T09:50:05.086Z,6.45
2022-07-31T09:55:17.019Z,9.27
2022-07-31T10:00:24.954Z,7.43
2022-07-31T10:05:32.873Z,7.50
2022-07-31T10:10:40.602Z,10.02
2022-07-31T10:16:03.562Z,9.70
2022-07-31T10:21:19.798Z,9.73
2022-07-31T10:26:59.208Z,7.72
2022-07-31T10:32:04.165Z,5.50
2022-07-31T10:37:22.410Z,9.30
2022-07-31T10:49:08.810Z,7.18
2022-07-31T10:54:44.391Z,6.05
2022-07-31T11:00:29.579Z,6.97
2022-07-31T11:06:12.159Z,6.75
2022-07-31T11:11:40.699Z,7.13
2022-07-31T11:17:14.476Z,5.95
2022-07-31T11:22:36.128Z,6.60
2022-07-31T11:27:42.365Z,7.60
2022-07-31T11:33:09.666Z,7.40
2022-07-31T11:38:53.439Z,7.25
2022-07-31T11:43:50.357Z,6.60
2022-07-31T11:48:57.451Z,9.02
2022-07-31T11:54:03.080Z,5.63
2022-07-31T11:59:08.864Z,7.40
2022-07-31T12:04:37.944Z,9.45
2022-07-31T12:10:02.310Z,8.90
2022-07-31T12:20:34.920Z,9.20
2022-07-31T12:25:43.994Z,11.20
2022-07-31T12:31:01.543Z,11.32
2022-07-31T12:36:16.279Z,12.32
2022-07-31T12:41:32.050Z,11.63
2022-07-31T12:46:39.081Z,12.75
2022-07-31T12:51:47.187Z,13.38
2022-07-31T12:56:55.210Z,12.52
2022-07-31T13:02:01.397Z,12.20
2022-07-31T13:07:11.425Z,13.43
2022-07-31T13:12:17.591Z,14.52
2022-07-31T13:17:23.765Z,12.73
2022-07-31T13:22:29.750Z,13.45
2022-07-31T13:27:38.356Z,13.82
2022-07-31T13:32:44.469Z,14.75
2022-07-31T13:38:03.901Z,15.65
2022-07-31T13:44:00.344Z,17.10
2022-07-31T13:49:10.820Z,16.58
2022-07-31T13:54:17.855Z,15.27
2022-07-31T13:59:24.888Z,18.73
2022-07-31T14:04:32.967Z,19.05
2022-07-31T14:09:47.106Z,18.92
2022-07-31T14:15:01.595Z,18.75
2022-07-31T14:20:08.184Z,18.08
2022-07-31T14:25:18.564Z,20.33
2022-07-31T14:30:26.570Z,19.17
2022-07-31T14:35:34.940Z,19.02
2022-07-31T14:40:40.612Z,19.42
2022-07-31T14:45:51.021Z,17.95
2022-07-31T14:50:57.722Z,18.35
2022-07-31T14:56:04.721Z,21.90
2022-07-31T15:01:10.771Z,21.33
2022-07-31T15:06:40.098Z,24.95
2022-07-31T15:12:00.407Z,20.45
2022-07-31T15:17:07.859Z,23.42
2022-07-31T15:22:17.024Z,21.50
2022-07-31T15:27:25.626Z,19.30
2022-07-31T15:33:15.938Z,22.77
2022-07-31T15:38:55.316Z,23.48
2022-07-31T15:44:14.910Z,23.30
2022-07-31T15:50:00.304Z,21.88
2022-07-31T16:01:27.817Z,20.35
2022-07-31T16:08:33.002Z,22.35
2022-07-31T16:14:11.779Z,19.20
2022-07-31T16:19:31.190Z,20.40
2022-07-31T16:24:40.938Z,18.58
2022-07-31T16:30:37.197Z,17.38
2022-07-31T16:42:20.708Z,16.75
2022-07-31T16:47:51.150Z,18.98
2022-07-31T16:52:54.910Z,15.85
2022-07-31T16:58:00.808Z,15.23
2022-07-31T17:03:06.625Z,14.73
2022-07-31T17:13:37.629Z,12.32
2022-07-31T17:18:43.419Z,11.38
2022-07-31T17:23:58.368Z,10.87
2022-07-31T17:29:03.791Z,10.77
2022-07-31T17:44:20.362Z,11.38
2022-07-31T17:49:26.332Z,11.90
2022-07-31T17:54:33.868Z,10.77
2022-07-31T17:59:39.612Z,12.15
2022-07-31T18:04:45.494Z,11.73
2022-07-31T18:09:51.886Z,12.15
2022-07-31T18:14:57.757Z,14.85
2022-07-31T18:20:06.318Z,14.07
2022-07-31T18:25:12.332Z,15.57
2022-07-31T18:30:17.887Z,12.90
2022-07-31T18:35:24.098Z,13.20
2022-07-31T18:40:29.618Z,14.10
2022-07-31T18:45:36.291Z,13.50
2022-07-31T18:51:02.347Z,12.43
2022-07-31T18:56:09.934Z,12.32
2022-07-31T19:01:15.840Z,12.02
2022-07-31T19:06:24.339Z,12.27
2022-07-31T19:11:30.508Z,11.70
2022-07-31T19:16:36.458Z,11.60
2022-07-31T19:21:44.472Z,11.15
2022-07-31T19:26:50.434Z,11.75
2022-07-31T19:31:59.411Z,12.65
2022-07-31T19:37:05.789Z,11.20
2022-07-31T19:42:16.191Z,11.18
2022-07-31T19:47:22.161Z,10.68
2022-07-31T19:52:28.119Z,10.35
2022-07-31T19:57:34.353Z,17.80
2022-07-31T20:02:41.641Z,41.40
2022-07-31T20:07:47.532Z,34.60
2022-07-31T20:12:53.259Z,29.58
2022-07-31T20:17:59.518Z,43.95
2022-07-31T20:23:05.702Z,40.85
2022-07-31T20:28:11.575Z,36.28
2022-07-31T20:33:17.758Z,32.42
2022-07-31T20:38:25.613Z,27.77
2022-07-31T20:43:32.049Z,21.42
2022-07-31T20:48:40.595Z,20.83
2022-07-31T20:53:46.247Z,14.05
2022-07-31T20:58:52.332Z,11.15
2022-07-31T21:03:58.924Z,12.80
2022-07-31T21:09:04.935Z,9.32
2022-07-31T21:14:10.691Z,11.25
2022-07-31T21:19:16.931Z,10.93
2022-07-31T21:24:23.220Z,10.82
2022-07-31T21:29:31.832Z,9.77
2022-07-31T21:34:38.758Z,10.65
2022-07-31T21:39:44.909Z,17.77
2022-07-31T21:44:51.129Z,17.17
2022-07-31T21:49:58.986Z,20.05
2022-07-31T21:55:07.098Z,16.92
2022-07-31T22:00:15.749Z,18.98
2022-07-31T22:05:40.119Z,17.30
2022-07-31T22:10:45.941Z,21.23
2022-07-31T22:15:59.793Z,17.75
2022-07-31T22:21:10.982Z,17.70
2022-07-31T22:26:18.331Z,18.33
2022-07-31T22:31:24.859Z,17.15
2022-07-31T22:36:31.269Z,17.08
2022-07-31T22:41:37.771Z,15.52
2022-07-31T22:46:44.724Z,16.15
2022-07-31T22:51:50.627Z,15.50
2022-07-31T22:56:56.560Z,15.43
2022-07-31T23:02:03.591Z,17.73
2022-07-31T23:07:10.830Z,15.63
2022-07-31T23:12:16.699Z,17.15
2022-07-31T23:17:23.522Z,15.80
2022-07-31T23:22:30.610Z,13.30
2022-07-31T23:27:42.381Z,13.05
2022-07-31T23:32:48.616Z,11.25
2022-07-31T23:37:54.492Z,10.98
2022-07-31T23:43:01.308Z,9.63
2022-07-31T23:48:07.943Z,8.57
2022-07-31T23:53:20.927Z,7.95
2022-07-31T23:58:27.504Z,8.10
